Weather at Adolfo Suárez Madrid–Barajas Airport

Public forecast

Using degrees Celsius for public forecast. Weather courtesy of forecast.io.

Current aviation weather report (METAR) for Adolfo Suárez Madrid–Barajas Airport

Retrieved 2021/01/23 09:30 UTC (0 seconds ago):

LEMD 230930Z 22014KT 9999 SCT050 07/03 Q1015 NOSIG

Aviation forecast (TAF) for Adolfo Suárez Madrid–Barajas Airport

Retrieved 2021/01/23 06:27 UTC (3 hours ago):

TAF LEMD 230500Z 2306/2412 24012KT 9999 SCT040 TX12/2315Z TN03/2306Z PROB40 TEMPO 2306/2310 3000 BR BKN005 TEMPO 2310/2324 3000 RA SHRA BKN010 SCT030TCU PROB40 TEMPO 2311/2403 24020G32KT